createdAt,value
2022-08-14T00:00:45.122Z,21.80
2022-08-14T00:03:20.550Z,21.80
2022-08-14T00:06:00.174Z,21.70
2022-08-14T00:08:43.746Z,21.60
2022-08-14T00:11:15.581Z,21.70
2022-08-14T00:13:52.783Z,21.60
2022-08-14T00:16:40.992Z,21.50
2022-08-14T00:19:19.047Z,21.50
2022-08-14T00:21:49.984Z,21.50
2022-08-14T00:24:28.668Z,21.50
2022-08-14T00:27:02.254Z,21.40
2022-08-14T00:29:33.148Z,21.20
2022-08-14T00:32:56.319Z,21.10
2022-08-14T00:35:01.276Z,21.00
2022-08-14T00:37:33.287Z,20.80
2022-08-14T00:40:02.737Z,20.70
2022-08-14T00:42:55.966Z,20.50
2022-08-14T00:45:25.280Z,20.40
2022-08-14T00:47:53.898Z,20.20
2022-08-14T00:50:25.944Z,20.10
2022-08-14T00:52:56.166Z,20.10
2022-08-14T00:55:25.766Z,20.10
2022-08-14T00:58:10.947Z,20.10
2022-08-14T01:00:47.542Z,20.20
2022-08-14T01:03:27.877Z,20.20
2022-08-14T01:06:00.615Z,20.20
2022-08-14T01:08:52.000Z,20.20
2022-08-14T01:11:21.338Z,20.20
2022-08-14T01:13:55.986Z,20.00
2022-08-14T01:16:31.461Z,19.70
2022-08-14T01:19:19.777Z,19.50
2022-08-14T01:21:53.351Z,19.40
2022-08-14T01:24:24.843Z,19.30
2022-08-14T01:27:00.756Z,19.50
2022-08-14T01:29:58.715Z,19.50
2022-08-14T01:32:22.952Z,19.50
2022-08-14T01:35:20.998Z,19.50
2022-08-14T01:37:46.843Z,19.50
2022-08-14T01:40:25.379Z,19.50
2022-08-14T01:43:00.148Z,19.50
2022-08-14T01:45:40.605Z,19.50
2022-08-14T01:48:13.584Z,19.50
2022-08-14T01:50:44.264Z,19.30
2022-08-14T01:53:15.429Z,19.10
2022-08-14T01:55:45.224Z,19.00
2022-08-14T01:58:19.596Z,19.00
2022-08-14T02:00:55.018Z,19.00
2022-08-14T02:03:29.598Z,19.00
2022-08-14T02:06:04.294Z,19.10
2022-08-14T02:08:53.125Z,19.20
2022-08-14T02:11:25.344Z,19.30
2022-08-14T02:13:58.795Z,19.40
2022-08-14T02:16:29.967Z,19.50
2022-08-14T02:19:01.039Z,19.60
2022-08-14T02:21:39.538Z,19.70
2022-08-14T02:24:39.131Z,19.70
2022-08-14T02:28:25.440Z,19.70
2022-08-14T02:30:00.684Z,19.70
2022-08-14T02:32:37.056Z,19.70
2022-08-14T02:35:18.723Z,19.80
2022-08-14T02:37:49.585Z,19.80
2022-08-14T02:40:21.043Z,19.50
2022-08-14T02:43:02.737Z,19.30
2022-08-14T02:45:38.811Z,19.10
2022-08-14T02:49:05.452Z,18.90
2022-08-14T02:51:03.240Z,18.60
2022-08-14T02:53:33.241Z,18.30
2022-08-14T02:56:10.158Z,18.20
2022-08-14T02:58:55.741Z,18.30
2022-08-14T03:01:31.510Z,18.40
2022-08-14T03:04:13.379Z,18.50
2022-08-14T03:06:57.455Z,18.70
2022-08-14T03:10:24.594Z,18.80
2022-08-14T03:12:30.954Z,18.80
2022-08-14T03:15:16.311Z,18.70
2022-08-14T03:17:56.845Z,18.80
2022-08-14T03:20:29.133Z,18.90
2022-08-14T03:23:03.327Z,19.00
2022-08-14T03:25:37.416Z,19.00
2022-08-14T03:28:14.443Z,19.10
2022-08-14T03:30:59.933Z,19.10
2022-08-14T03:33:38.058Z,19.20
2022-08-14T03:37:38.386Z,19.20
2022-08-14T03:39:12.450Z,19.20
2022-08-14T03:41:47.900Z,19.20
2022-08-14T03:45:19.528Z,19.20
2022-08-14T03:47:08.055Z,19.10
2022-08-14T03:49:42.310Z,19.20
2022-08-14T03:52:17.961Z,19.10
2022-08-14T03:55:03.868Z,19.10
2022-08-14T03:57:32.887Z,19.20
2022-08-14T04:00:40.194Z,19.10
2022-08-14T04:03:06.891Z,19.10
2022-08-14T04:05:43.350Z,18.80
2022-08-14T04:08:23.206Z,18.50
2022-08-14T04:11:02.052Z,18.40
2022-08-14T04:13:33.939Z,18.20
2022-08-14T04:16:06.800Z,18.00
2022-08-14T04:18:42.460Z,17.80
2022-08-14T04:21:11.542Z,17.70
2022-08-14T04:23:40.941Z,17.70
2022-08-14T04:26:14.423Z,17.60
2022-08-14T04:29:08.826Z,17.70
2022-08-14T04:33:10.256Z,17.70
2022-08-14T04:34:27.858Z,17.70
2022-08-14T04:37:21.954Z,17.60
2022-08-14T04:40:10.844Z,17.60
2022-08-14T04:42:56.795Z,17.40
2022-08-14T04:45:29.631Z,17.30
2022-08-14T04:48:39.694Z,17.30
2022-08-14T04:51:05.429Z,16.90
2022-08-14T04:53:36.057Z,16.50
2022-08-14T04:56:31.686Z,16.20
2022-08-14T04:59:05.081Z,16.20
2022-08-14T05:01:47.664Z,16.40
2022-08-14T05:04:21.249Z,16.60
2022-08-14T05:06:53.735Z,16.70
2022-08-14T05:09:24.693Z,16.80
2022-08-14T05:13:11.292Z,16.80
2022-08-14T05:14:54.795Z,17.20
2022-08-14T05:17:32.041Z,16.50
2022-08-14T05:21:56.396Z,16.30
2022-08-14T05:23:03.790Z,16.10
2022-08-14T05:25:34.182Z,16.00
2022-08-14T05:28:14.122Z,16.00
2022-08-14T05:30:46.624Z,16.10
2022-08-14T05:33:16.329Z,16.20
2022-08-14T05:35:46.988Z,16.30
2022-08-14T05:38:30.546Z,16.40
2022-08-14T05:40:59.728Z,16.60
2022-08-14T05:43:40.891Z,16.80
2022-08-14T05:46:12.474Z,16.90
2022-08-14T05:48:45.336Z,17.10
2022-08-14T05:51:15.539Z,17.40
2022-08-14T05:54:00.300Z,17.50
2022-08-14T05:56:33.078Z,17.70
2022-08-14T05:59:05.961Z,17.90
2022-08-14T06:01:35.695Z,18.10
2022-08-14T06:04:05.333Z,18.30
2022-08-14T06:06:38.335Z,18.40
2022-08-14T06:09:09.700Z,18.60
2022-08-14T06:11:38.646Z,18.60
2022-08-14T06:14:12.423Z,18.70
2022-08-14T06:16:49.868Z,18.60
2022-08-14T06:19:23.446Z,18.70
2022-08-14T06:21:58.438Z,18.70
2022-08-14T06:24:30.443Z,18.80
2022-08-14T06:27:04.418Z,19.00
2022-08-14T06:29:35.301Z,19.20
2022-08-14T06:32:38.500Z,19.30
2022-08-14T06:35:09.677Z,19.50
2022-08-14T06:37:46.937Z,19.70
2022-08-14T06:40:27.000Z,19.80
2022-08-14T06:42:56.934Z,19.90
2022-08-14T06:45:30.413Z,20.20
2022-08-14T06:47:59.144Z,20.20
2022-08-14T06:50:30.152Z,20.30
2022-08-14T06:53:01.069Z,20.50
2022-08-14T06:55:29.672Z,20.70
2022-08-14T06:57:58.361Z,20.80
2022-08-14T07:00:31.046Z,21.00
2022-08-14T07:03:19.320Z,21.10
2022-08-14T07:05:55.804Z,21.20
2022-08-14T07:08:31.914Z,21.40
2022-08-14T07:11:04.339Z,21.40
2022-08-14T07:13:34.146Z,21.60
2022-08-14T07:16:05.635Z,21.60
2022-08-14T07:18:35.959Z,21.80
2022-08-14T07:21:07.263Z,21.90
2022-08-14T07:23:40.032Z,22.10
2022-08-14T07:26:10.318Z,22.20
2022-08-14T07:28:43.495Z,22.30
2022-08-14T07:31:13.835Z,22.40
2022-08-14T07:33:50.774Z,22.50
2022-08-14T07:36:27.513Z,22.60
2022-08-14T07:39:02.914Z,22.70
2022-08-14T07:41:35.797Z,22.90
2022-08-14T07:44:32.264Z,23.00
2022-08-14T07:46:54.497Z,23.00
2022-08-14T07:49:24.481Z,23.10
2022-08-14T07:51:53.187Z,23.10
2022-08-14T07:54:29.933Z,23.20
2022-08-14T07:57:00.654Z,23.30
2022-08-14T07:59:42.243Z,23.40
2022-08-14T08:02:19.558Z,23.50
2022-08-14T08:04:54.926Z,23.60
2022-08-14T08:07:29.563Z,23.60
2022-08-14T08:10:31.120Z,23.70
2022-08-14T08:13:15.547Z,23.80
2022-08-14T08:15:46.199Z,23.90
2022-08-14T08:18:27.703Z,24.00
2022-08-14T08:21:00.164Z,24.00
2022-08-14T08:23:40.233Z,24.20
2022-08-14T08:26:14.398Z,24.20
2022-08-14T08:28:44.121Z,24.30
2022-08-14T08:31:13.724Z,24.40
2022-08-14T08:33:46.975Z,24.40
2022-08-14T08:36:18.974Z,24.50
2022-08-14T08:39:16.743Z,24.40
2022-08-14T08:41:45.502Z,24.50
2022-08-14T08:44:31.927Z,24.50
2022-08-14T08:47:06.787Z,24.60
2022-08-14T08:49:52.817Z,24.70
2022-08-14T08:52:31.651Z,24.70
2022-08-14T08:55:04.511Z,24.90
2022-08-14T08:57:37.807Z,25.00
2022-08-14T09:00:25.042Z,25.10
2022-08-14T09:02:57.488Z,25.10
2022-08-14T09:05:26.790Z,25.20
2022-08-14T09:07:56.593Z,25.20
2022-08-14T09:10:27.144Z,25.30
2022-08-14T09:12:57.916Z,25.40
2022-08-14T09:15:27.314Z,25.50
2022-08-14T09:18:11.799Z,25.40
2022-08-14T09:20:41.436Z,25.40
2022-08-14T09:23:12.193Z,25.40
2022-08-14T09:25:59.842Z,25.40
2022-08-14T09:28:31.594Z,25.50
2022-08-14T09:31:07.293Z,25.60
2022-08-14T09:33:59.391Z,25.70
2022-08-14T09:36:54.561Z,25.80
2022-08-14T09:39:38.702Z,25.80
2022-08-14T09:42:33.462Z,25.90
2022-08-14T09:45:15.117Z,26.00
2022-08-14T09:47:49.102Z,26.00
2022-08-14T09:50:26.878Z,26.10
2022-08-14T09:52:58.409Z,26.20
2022-08-14T09:55:41.391Z,26.20
2022-08-14T09:58:19.476Z,26.30
2022-08-14T10:00:54.886Z,26.20
2022-08-14T10:03:34.256Z,26.30
2022-08-14T10:06:11.973Z,26.50
2022-08-14T10:08:44.417Z,26.60
2022-08-14T10:11:19.455Z,26.70
2022-08-14T10:13:55.967Z,26.80
2022-08-14T10:16:33.468Z,26.80
2022-08-14T10:19:07.351Z,26.90
2022-08-14T10:21:58.691Z,27.00
2022-08-14T10:24:36.180Z,27.00
2022-08-14T10:27:16.969Z,27.10
2022-08-14T10:29:49.500Z,27.00
2022-08-14T10:32:29.291Z,27.10
2022-08-14T10:35:14.267Z,27.10
2022-08-14T10:37:48.193Z,27.10
2022-08-14T10:40:37.385Z,27.30
2022-08-14T10:43:19.176Z,27.40
2022-08-14T10:46:04.014Z,27.60
2022-08-14T10:49:00.191Z,27.60
2022-08-14T10:51:34.344Z,27.50
2022-08-14T10:54:35.112Z,27.60
2022-08-14T10:56:58.741Z,27.50
2022-08-14T10:59:36.186Z,27.50
2022-08-14T11:02:44.691Z,27.50
2022-08-14T11:05:20.276Z,27.60
2022-08-14T11:07:57.260Z,27.80
2022-08-14T11:10:42.933Z,27.70
2022-08-14T11:13:17.461Z,28.10
2022-08-14T11:15:48.823Z,28.30
2022-08-14T11:18:20.472Z,28.50
2022-08-14T11:21:02.162Z,28.50
2022-08-14T11:23:38.309Z,28.60
2022-08-14T11:26:10.402Z,28.60
2022-08-14T11:28:46.821Z,28.60
2022-08-14T11:31:22.173Z,28.70
2022-08-14T11:33:54.186Z,28.80
2022-08-14T11:36:35.361Z,28.90
2022-08-14T11:39:22.864Z,28.90
2022-08-14T11:42:55.354Z,29.00
2022-08-14T11:44:53.876Z,29.10
2022-08-14T11:47:25.452Z,29.20
2022-08-14T11:49:55.701Z,29.20
2022-08-14T11:52:40.234Z,29.30
2022-08-14T11:55:11.774Z,29.40
2022-08-14T11:57:40.825Z,29.30
2022-08-14T12:00:14.761Z,29.30
2022-08-14T12:03:02.735Z,29.30
2022-08-14T12:05:35.921Z,29.30
2022-08-14T12:08:12.124Z,29.30
2022-08-14T12:10:45.193Z,29.30
2022-08-14T12:13:19.091Z,29.40
2022-08-14T12:16:06.595Z,29.50
2022-08-14T12:18:41.628Z,29.60
2022-08-14T12:21:15.693Z,29.60
2022-08-14T12:24:01.924Z,29.60
2022-08-14T12:26:39.206Z,29.80
2022-08-14T12:29:13.131Z,29.80
2022-08-14T12:31:44.714Z,29.80
2022-08-14T12:34:20.310Z,29.90
2022-08-14T12:36:51.867Z,29.90
2022-08-14T12:39:26.087Z,30.00
2022-08-14T12:42:01.644Z,30.00
2022-08-14T12:44:32.148Z,30.10
2022-08-14T12:47:07.089Z,30.20
2022-08-14T12:49:35.603Z,30.10
2022-08-14T12:52:17.143Z,30.10
2022-08-14T12:55:06.465Z,30.10
2022-08-14T12:57:42.722Z,29.90
2022-08-14T13:00:23.174Z,29.90
2022-08-14T13:02:56.473Z,29.90
2022-08-14T13:05:29.081Z,30.00
2022-08-14T13:07:59.431Z,30.20
2022-08-14T13:10:46.850Z,30.30
2022-08-14T13:13:18.703Z,30.20
2022-08-14T13:15:56.058Z,30.30
2022-08-14T13:18:28.444Z,30.40
2022-08-14T13:21:01.969Z,30.50
2022-08-14T13:23:36.421Z,30.50
2022-08-14T13:26:09.754Z,30.60
2022-08-14T13:29:02.340Z,30.50
2022-08-14T13:31:34.497Z,30.40
2022-08-14T13:34:04.515Z,30.60
2022-08-14T13:36:54.985Z,30.70
2022-08-14T13:39:26.535Z,30.80
2022-08-14T13:42:00.164Z,30.80
2022-08-14T13:44:29.478Z,30.90
2022-08-14T13:46:58.566Z,30.90
2022-08-14T13:49:29.220Z,30.90
2022-08-14T13:51:59.852Z,30.80
2022-08-14T13:54:32.947Z,30.70
2022-08-14T13:57:03.821Z,30.70
2022-08-14T13:59:38.473Z,30.50
2022-08-14T14:02:09.623Z,30.30
2022-08-14T14:04:41.822Z,30.40
2022-08-14T14:07:13.098Z,30.40
2022-08-14T14:09:52.965Z,30.50
2022-08-14T14:12:37.457Z,30.50
2022-08-14T14:15:13.909Z,30.50
2022-08-14T14:17:44.301Z,30.50
2022-08-14T14:20:35.471Z,30.40
2022-08-14T14:23:11.791Z,30.50
2022-08-14T14:25:48.086Z,30.50
2022-08-14T14:28:23.999Z,30.50
2022-08-14T14:30:57.342Z,30.50
2022-08-14T14:33:50.099Z,30.40
2022-08-14T14:36:21.974Z,30.30
2022-08-14T14:38:54.398Z,30.20
2022-08-14T14:41:25.178Z,30.30
2022-08-14T14:43:57.428Z,30.30
2022-08-14T14:46:36.898Z,30.20
2022-08-14T14:49:08.029Z,30.20
2022-08-14T14:51:43.252Z,30.20
2022-08-14T14:54:13.092Z,30.20
2022-08-14T14:56:50.878Z,30.20
2022-08-14T14:59:22.204Z,30.20
2022-08-14T15:01:54.034Z,30.10
2022-08-14T15:04:24.430Z,30.10
2022-08-14T15:06:55.368Z,30.00
2022-08-14T15:09:23.971Z,30.10
2022-08-14T15:11:52.994Z,30.00
2022-08-14T15:14:55.746Z,30.00
2022-08-14T15:17:12.117Z,30.00
2022-08-14T15:19:42.046Z,29.90
2022-08-14T15:22:25.507Z,29.90
2022-08-14T15:24:53.913Z,29.80
2022-08-14T15:27:26.629Z,29.80
2022-08-14T15:29:57.429Z,29.80
2022-08-14T15:32:26.987Z,29.70
2022-08-14T15:34:58.131Z,29.70
2022-08-14T15:37:32.740Z,29.60
2022-08-14T15:40:03.012Z,29.60
2022-08-14T15:42:39.937Z,29.50
2022-08-14T15:45:12.639Z,29.50
2022-08-14T15:47:44.171Z,29.50
2022-08-14T15:50:13.166Z,29.50
2022-08-14T15:52:43.116Z,29.40
2022-08-14T15:55:16.171Z,29.30
2022-08-14T15:58:01.234Z,29.30
2022-08-14T16:00:53.639Z,29.30
2022-08-14T16:03:27.991Z,29.20
2022-08-14T16:06:05.865Z,29.20
2022-08-14T16:08:41.074Z,29.10
2022-08-14T16:11:12.154Z,29.10
2022-08-14T16:13:44.300Z,29.10
2022-08-14T16:16:50.825Z,29.00
2022-08-14T16:19:10.077Z,29.00
2022-08-14T16:22:02.560Z,29.00
2022-08-14T16:24:35.892Z,29.00
2022-08-14T16:27:34.265Z,29.00
2022-08-14T16:30:20.381Z,29.00
2022-08-14T16:32:57.331Z,28.90
2022-08-14T16:35:42.966Z,28.90
2022-08-14T16:38:19.576Z,28.90
2022-08-14T16:41:27.625Z,28.90
2022-08-14T16:44:04.540Z,28.80
2022-08-14T16:46:38.173Z,28.80
2022-08-14T16:49:11.180Z,28.70
2022-08-14T16:51:44.379Z,28.70
2022-08-14T16:54:34.279Z,28.60
2022-08-14T16:57:20.930Z,28.60
2022-08-14T16:59:52.638Z,28.60
2022-08-14T17:02:39.047Z,28.60
2022-08-14T17:05:21.695Z,28.50
2022-08-14T17:08:32.400Z,28.50
2022-08-14T17:11:21.276Z,28.40
2022-08-14T17:14:00.827Z,28.40
2022-08-14T17:16:37.879Z,28.40
2022-08-14T17:19:09.774Z,28.30
2022-08-14T17:21:47.259Z,28.30
2022-08-14T17:24:56.165Z,28.30
2022-08-14T17:27:08.399Z,28.20
2022-08-14T17:29:54.388Z,28.20
2022-08-14T17:32:55.457Z,28.20
2022-08-14T17:35:38.985Z,28.20
2022-08-14T17:38:38.493Z,28.10
2022-08-14T17:41:27.253Z,28.10
2022-08-14T17:44:33.942Z,28.10
2022-08-14T17:47:11.348Z,28.00
2022-08-14T17:49:51.876Z,27.90
2022-08-14T17:52:34.245Z,27.90
2022-08-14T17:55:09.812Z,27.90
2022-08-14T17:57:42.604Z,27.90
2022-08-14T18:00:14.699Z,27.80
2022-08-14T18:02:51.135Z,27.80
2022-08-14T18:05:23.756Z,27.70
2022-08-14T18:08:33.707Z,27.70
2022-08-14T18:11:02.419Z,27.60
2022-08-14T18:13:52.058Z,27.60
2022-08-14T18:16:22.425Z,27.50
2022-08-14T18:18:52.772Z,27.50
2022-08-14T18:21:42.103Z,27.40
2022-08-14T18:24:20.043Z,27.30
2022-08-14T18:27:06.868Z,27.30
2022-08-14T18:29:55.246Z,27.30
2022-08-14T18:32:47.567Z,27.30
2022-08-14T18:35:46.322Z,27.20
2022-08-14T18:38:25.913Z,27.20
2022-08-14T18:40:56.672Z,27.20
2022-08-14T18:43:45.558Z,27.20
2022-08-14T18:47:00.857Z,27.20
2022-08-14T18:49:17.421Z,27.20
2022-08-14T18:51:47.024Z,27.20
2022-08-14T18:54:29.996Z,27.20
2022-08-14T18:57:03.625Z,27.20
2022-08-14T18:59:39.322Z,27.20
2022-08-14T19:02:43.477Z,27.10
2022-08-14T19:05:13.440Z,27.10
2022-08-14T19:07:48.175Z,27.10
2022-08-14T19:10:37.349Z,27.00
2022-08-14T19:13:11.816Z,27.10
2022-08-14T19:15:44.340Z,27.00
2022-08-14T19:18:28.261Z,27.00
2022-08-14T19:20:59.443Z,26.90
2022-08-14T19:23:43.205Z,26.90
2022-08-14T19:26:36.707Z,26.90
2022-08-14T19:29:23.699Z,26.90
2022-08-14T19:31:56.260Z,26.90
2022-08-14T19:34:52.142Z,26.80
2022-08-14T19:37:52.024Z,26.70
2022-08-14T19:40:33.911Z,26.50
2022-08-14T19:43:06.786Z,26.40
2022-08-14T19:45:39.918Z,26.30
2022-08-14T19:48:16.168Z,26.30
2022-08-14T19:50:46.945Z,26.20
2022-08-14T19:53:16.736Z,26.10
2022-08-14T19:55:59.616Z,26.00
2022-08-14T19:58:54.587Z,25.90
2022-08-14T20:01:58.292Z,25.90
2022-08-14T20:04:45.736Z,25.70
2022-08-14T20:07:59.635Z,25.60
2022-08-14T20:11:04.708Z,25.50
2022-08-14T20:13:23.700Z,25.50
2022-08-14T20:15:52.680Z,25.50
2022-08-14T20:18:49.219Z,25.50
2022-08-14T20:21:17.159Z,25.40
2022-08-14T20:23:48.003Z,25.40
2022-08-14T20:26:31.429Z,25.50
2022-08-14T20:29:04.613Z,25.50
2022-08-14T20:31:37.039Z,25.50
2022-08-14T20:34:24.942Z,25.50
2022-08-14T20:37:09.750Z,25.50
2022-08-14T20:39:43.634Z,25.60
2022-08-14T20:42:35.075Z,25.60
2022-08-14T20:45:19.738Z,25.60
2022-08-14T20:47:53.577Z,25.60
2022-08-14T20:50:29.003Z,25.60
2022-08-14T20:53:00.888Z,25.50
2022-08-14T20:55:41.526Z,25.50
2022-08-14T20:58:41.938Z,25.40
2022-08-14T21:01:34.769Z,25.20
2022-08-14T21:04:14.274Z,25.00
2022-08-14T21:07:23.183Z,24.80
2022-08-14T21:10:05.692Z,24.70
2022-08-14T21:12:34.285Z,24.70
2022-08-14T21:15:11.189Z,24.50
2022-08-14T21:17:43.107Z,24.40
2022-08-14T21:20:26.224Z,24.30
2022-08-14T21:23:00.232Z,24.30
2022-08-14T21:25:31.365Z,24.30
2022-08-14T21:28:04.919Z,24.40
2022-08-14T21:30:46.543Z,24.50
2022-08-14T21:33:23.541Z,24.50
2022-08-14T21:35:54.853Z,24.60
2022-08-14T21:38:33.791Z,24.70
2022-08-14T21:41:42.582Z,24.70
2022-08-14T21:44:04.413Z,24.80
2022-08-14T21:46:36.377Z,24.80
2022-08-14T21:49:14.399Z,24.70
2022-08-14T21:51:55.535Z,24.70
2022-08-14T21:54:50.104Z,24.60
2022-08-14T21:57:55.851Z,24.60
2022-08-14T22:00:34.698Z,24.60
2022-08-14T22:03:09.096Z,24.60
2022-08-14T22:05:43.705Z,24.50
2022-08-14T22:08:16.066Z,24.50
2022-08-14T22:10:47.805Z,24.50
2022-08-14T22:13:24.604Z,24.30
2022-08-14T22:15:59.681Z,24.00
2022-08-14T22:18:32.214Z,23.90
2022-08-14T22:21:05.532Z,23.90
2022-08-14T22:23:35.429Z,23.90
2022-08-14T22:26:06.284Z,23.90
2022-08-14T22:28:34.714Z,23.90
2022-08-14T22:31:09.951Z,23.70
2022-08-14T22:33:43.038Z,23.60
2022-08-14T22:36:34.295Z,23.40
2022-08-14T22:39:11.350Z,23.20
2022-08-14T22:41:43.182Z,23.20
2022-08-14T22:44:15.204Z,23.10
2022-08-14T22:46:45.144Z,23.00
2022-08-14T22:49:15.482Z,23.10
2022-08-14T22:52:32.465Z,23.10
2022-08-14T22:54:58.902Z,23.20
2022-08-14T22:57:37.248Z,23.20
2022-08-14T23:00:14.993Z,23.10
2022-08-14T23:02:47.106Z,23.10
2022-08-14T23:05:38.867Z,23.00
2022-08-14T23:08:57.596Z,23.00
2022-08-14T23:11:01.860Z,23.00
2022-08-14T23:13:32.648Z,23.00
2022-08-14T23:16:01.653Z,22.90
2022-08-14T23:18:30.491Z,22.90
2022-08-14T23:20:59.496Z,23.00
2022-08-14T23:23:29.692Z,23.00
2022-08-14T23:26:46.908Z,23.00
2022-08-14T23:28:56.538Z,23.00
2022-08-14T23:31:35.247Z,23.00
2022-08-14T23:34:07.636Z,22.90
2022-08-14T23:36:53.573Z,22.90
2022-08-14T23:39:32.984Z,22.90
2022-08-14T23:42:11.482Z,22.90
2022-08-14T23:44:40.665Z,22.90
2022-08-14T23:47:26.348Z,22.90
2022-08-14T23:50:03.611Z,22.90
2022-08-14T23:52:50.351Z,22.90
2022-08-14T23:55:29.719Z,22.90
2022-08-14T23:57:59.337Z,23.00
